sensor_id;sensor_type;location;lat;lon;timestamp;temperature;humidity
66726;HTU21D;53638;51.062;5.804;2023-02-13T00:01:43;5.51;118.99
66726;HTU21D;53638;51.062;5.804;2023-02-13T00:04:10;5.46;118.99
66726;HTU21D;53638;51.062;5.804;2023-02-13T00:06:35;5.41;118.99
66726;HTU21D;53638;51.062;5.804;2023-02-13T00:09:02;5.38;118.99
66726;HTU21D;53638;51.062;5.804;2023-02-13T00:11:28;5.38;118.99
66726;HTU21D;53638;51.062;5.804;2023-02-13T00:13:53;5.38;118.99
66726;HTU21D;53638;51.062;5.804;2023-02-13T00:16:19;5.36;118.99
66726;HTU21D;53638;51.062;5.804;2023-02-13T00:18:45;5.34;118.99
66726;HTU21D;53638;51.062;5.804;2023-02-13T00:21:12;5.33;118.99
66726;HTU21D;53638;51.062;5.804;2023-02-13T00:23:39;5.34;118.99
66726;HTU21D;53638;51.062;5.804;2023-02-13T00:26:07;5.34;118.99
66726;HTU21D;53638;51.062;5.804;2023-02-13T00:28:34;5.34;118.99
66726;HTU21D;53638;51.062;5.804;2023-02-13T00:31:04;5.34;118.99
66726;HTU21D;53638;51.062;5.804;2023-02-13T00:33:30;5.35;118.99
66726;HTU21D;53638;51.062;5.804;2023-02-13T00:36:03;5.35;118.99
66726;HTU21D;53638;51.062;5.804;2023-02-13T00:38:30;5.35;118.99
66726;HTU21D;53638;51.062;5.804;2023-02-13T00:40:55;5.34;118.99
66726;HTU21D;53638;51.062;5.804;2023-02-13T00:43:21;5.31;118.99
66726;HTU21D;53638;51.062;5.804;2023-02-13T00:45:47;5.31;118.99
66726;HTU21D;53638;51.062;5.804;2023-02-13T00:48:13;5.32;118.99
66726;HTU21D;53638;51.062;5.804;2023-02-13T00:50:39;5.27;118.99
66726;HTU21D;53638;51.062;5.804;2023-02-13T00:53:05;5.24;118.99
66726;HTU21D;53638;51.062;5.804;2023-02-13T00:55:31;5.23;118.99
66726;HTU21D;53638;51.062;5.804;2023-02-13T00:57:58;5.21;118.99
66726;HTU21D;53638;51.062;5.804;2023-02-13T01:00:24;5.22;118.99
66726;HTU21D;53638;51.062;5.804;2023-02-13T01:02:50;5.22;118.99
66726;HTU21D;53638;51.062;5.804;2023-02-13T01:05:17;5.22;118.99
66726;HTU21D;53638;51.062;5.804;2023-02-13T01:07:43;5.19;118.99
66726;HTU21D;53638;51.062;5.804;2023-02-13T01:10:09;5.16;118.99
66726;HTU21D;53638;51.062;5.804;2023-02-13T01:12:35;5.15;118.99
66726;HTU21D;53638;51.062;5.804;2023-02-13T01:15:02;5.11;118.99
66726;HTU21D;53638;51.062;5.804;2023-02-13T01:17:28;5.09;118.99
66726;HTU21D;53638;51.062;5.804;2023-02-13T01:19:55;5.06;118.99
66726;HTU21D;53638;51.062;5.804;2023-02-13T01:22:21;5.04;118.99
66726;HTU21D;53638;51.062;5.804;2023-02-13T01:24:47;5.04;118.99
66726;HTU21D;53638;51.062;5.804;2023-02-13T01:27:13;5.02;118.99
66726;HTU21D;53638;51.062;5.804;2023-02-13T01:29:39;5.01;118.99
66726;HTU21D;53638;51.062;5.804;2023-02-13T01:32:05;5.00;118.99
66726;HTU21D;53638;51.062;5.804;2023-02-13T01:34:33;4.96;118.99
66726;HTU21D;53638;51.062;5.804;2023-02-13T01:36:59;4.94;118.99
66726;HTU21D;53638;51.062;5.804;2023-02-13T01:39:25;4.91;118.99
66726;HTU21D;53638;51.062;5.804;2023-02-13T01:41:51;4.91;118.99
66726;HTU21D;53638;51.062;5.804;2023-02-13T01:44:44;4.92;118.99
66726;HTU21D;53638;51.062;5.804;2023-02-13T01:47:17;4.92;118.99
66726;HTU21D;53638;51.062;5.804;2023-02-13T01:49:46;4.91;118.99
66726;HTU21D;53638;51.062;5.804;2023-02-13T01:52:15;4.90;118.99
66726;HTU21D;53638;51.062;5.804;2023-02-13T01:54:43;4.89;118.99
66726;HTU21D;53638;51.062;5.804;2023-02-13T01:57:17;4.87;118.99
66726;HTU21D;53638;51.062;5.804;2023-02-13T02:02:14;4.58;118.99
66726;HTU21D;53638;51.062;5.804;2023-02-13T02:04:43;4.45;118.99
66726;HTU21D;53638;51.062;5.804;2023-02-13T02:07:21;4.31;118.99
66726;HTU21D;53638;51.062;5.804;2023-02-13T02:09:51;4.28;118.99
66726;HTU21D;53638;51.062;5.804;2023-02-13T02:12:32;4.28;118.99
66726;HTU21D;53638;51.062;5.804;2023-02-13T02:15:06;4.22;118.99
66726;HTU21D;53638;51.062;5.804;2023-02-13T02:17:32;4.16;118.99
66726;HTU21D;53638;51.062;5.804;2023-02-13T02:20:18;4.16;118.99
66726;HTU21D;53638;51.062;5.804;2023-02-13T02:23:27;4.12;118.99
66726;HTU21D;53638;51.062;5.804;2023-02-13T02:28:43;3.86;118.99
66726;HTU21D;53638;51.062;5.804;2023-02-13T02:34:09;3.86;118.99
66726;HTU21D;53638;51.062;5.804;2023-02-13T02:36:56;3.82;118.99
66726;HTU21D;53638;51.062;5.804;2023-02-13T02:39:38;3.77;118.99
66726;HTU21D;53638;51.062;5.804;2023-02-13T02:45:00;3.83;118.99
66726;HTU21D;53638;51.062;5.804;2023-02-13T02:47:43;3.84;118.99
66726;HTU21D;53638;51.062;5.804;2023-02-13T02:50:36;3.80;118.99
66726;HTU21D;53638;51.062;5.804;2023-02-13T02:53:23;3.79;118.99
66726;HTU21D;53638;51.062;5.804;2023-02-13T02:58:38;3.82;118.99
66726;HTU21D;53638;51.062;5.804;2023-02-13T03:01:29;3.79;118.99
66726;HTU21D;53638;51.062;5.804;2023-02-13T03:04:25;3.78;118.99
66726;HTU21D;53638;51.062;5.804;2023-02-13T03:07:15;3.79;118.99
66726;HTU21D;53638;51.062;5.804;2023-02-13T03:09:48;3.78;118.99
66726;HTU21D;53638;51.062;5.804;2023-02-13T03:12:41;3.80;118.99
66726;HTU21D;53638;51.062;5.804;2023-02-13T03:15:28;3.82;118.99
66726;HTU21D;53638;51.062;5.804;2023-02-13T03:17:56;3.78;118.99
66726;HTU21D;53638;51.062;5.804;2023-02-13T03:23:46;3.74;118.99
66726;HTU21D;53638;51.062;5.804;2023-02-13T03:26:24;3.79;118.99
66726;HTU21D;53638;51.062;5.804;2023-02-13T03:29:15;3.80;118.99
66726;HTU21D;53638;51.062;5.804;2023-02-13T03:34:55;3.77;118.99
66726;HTU21D;53638;51.062;5.804;2023-02-13T03:37:49;3.78;118.99
66726;HTU21D;53638;51.062;5.804;2023-02-13T03:40:30;3.74;118.99
66726;HTU21D;53638;51.062;5.804;2023-02-13T03:43:07;3.69;118.99
66726;HTU21D;53638;51.062;5.804;2023-02-13T03:45:40;3.65;118.99
66726;HTU21D;53638;51.062;5.804;2023-02-13T03:48:26;3.64;118.99
66726;HTU21D;53638;51.062;5.804;2023-02-13T03:51:22;3.59;118.99
66726;HTU21D;53638;51.062;5.804;2023-02-13T03:53:55;3.56;118.99
66726;HTU21D;53638;51.062;5.804;2023-02-13T03:56:25;3.56;118.99
66726;HTU21D;53638;51.062;5.804;2023-02-13T03:59:26;3.56;118.99
66726;HTU21D;53638;51.062;5.804;2023-02-13T04:02:01;3.53;118.99
66726;HTU21D;53638;51.062;5.804;2023-02-13T04:04:32;3.53;118.99
66726;HTU21D;53638;51.062;5.804;2023-02-13T04:07:03;3.47;118.99
66726;HTU21D;53638;51.062;5.804;2023-02-13T04:09:36;3.42;118.99
66726;HTU21D;53638;51.062;5.804;2023-02-13T04:12:18;3.43;118.99
66726;HTU21D;53638;51.062;5.804;2023-02-13T04:14:53;3.38;118.99
66726;HTU21D;53638;51.062;5.804;2023-02-13T04:17:28;3.35;118.99
66726;HTU21D;53638;51.062;5.804;2023-02-13T04:19:55;3.28;118.99
66726;HTU21D;53638;51.062;5.804;2023-02-13T04:22:21;3.24;118.99
66726;HTU21D;53638;51.062;5.804;2023-02-13T04:24:47;3.28;118.99
66726;HTU21D;53638;51.062;5.804;2023-02-13T04:27:15;3.26;118.99
66726;HTU21D;53638;51.062;5.804;2023-02-13T04:29:42;3.23;118.99
66726;HTU21D;53638;51.062;5.804;2023-02-13T04:32:10;3.16;118.99
66726;HTU21D;53638;51.062;5.804;2023-02-13T04:34:36;3.03;118.99
66726;HTU21D;53638;51.062;5.804;2023-02-13T04:37:02;2.89;118.99
66726;HTU21D;53638;51.062;5.804;2023-02-13T04:39:28;2.80;118.99
66726;HTU21D;53638;51.062;5.804;2023-02-13T04:41:54;2.69;118.99
66726;HTU21D;53638;51.062;5.804;2023-02-13T04:44:20;2.60;118.99
66726;HTU21D;53638;51.062;5.804;2023-02-13T04:46:46;2.56;118.99
66726;HTU21D;53638;51.062;5.804;2023-02-13T04:49:12;2.53;118.99
66726;HTU21D;53638;51.062;5.804;2023-02-13T04:51:38;2.44;118.99
66726;HTU21D;53638;51.062;5.804;2023-02-13T04:54:04;2.44;118.99
66726;HTU21D;53638;51.062;5.804;2023-02-13T04:56:30;2.44;118.99
66726;HTU21D;53638;51.062;5.804;2023-02-13T04:58:56;2.45;118.99
66726;HTU21D;53638;51.062;5.804;2023-02-13T05:01:22;2.46;118.99
66726;HTU21D;53638;51.062;5.804;2023-02-13T05:03:48;2.39;118.99
66726;HTU21D;53638;51.062;5.804;2023-02-13T05:06:14;2.32;118.99
66726;HTU21D;53638;51.062;5.804;2023-02-13T05:08:40;2.25;118.99
66726;HTU21D;53638;51.062;5.804;2023-02-13T05:11:06;2.21;118.99
66726;HTU21D;53638;51.062;5.804;2023-02-13T05:13:32;2.16;118.99
66726;HTU21D;53638;51.062;5.804;2023-02-13T05:15:58;2.16;118.99
66726;HTU21D;53638;51.062;5.804;2023-02-13T05:18:24;2.21;118.99
66726;HTU21D;53638;51.062;5.804;2023-02-13T05:20:50;2.25;118.99
66726;HTU21D;53638;51.062;5.804;2023-02-13T05:23:34;2.25;118.99
66726;HTU21D;53638;51.062;5.804;2023-02-13T05:26:00;2.30;118.99
66726;HTU21D;53638;51.062;5.804;2023-02-13T05:28:26;2.37;118.99
66726;HTU21D;53638;51.062;5.804;2023-02-13T05:31:11;2.40;118.99
66726;HTU21D;53638;51.062;5.804;2023-02-13T05:33:37;2.38;118.99
66726;HTU21D;53638;51.062;5.804;2023-02-13T05:36:03;2.37;118.99
66726;HTU21D;53638;51.062;5.804;2023-02-13T05:38:29;2.35;118.99
66726;HTU21D;53638;51.062;5.804;2023-02-13T05:40:58;2.35;118.99
66726;HTU21D;53638;51.062;5.804;2023-02-13T05:43:24;2.37;118.99
66726;HTU21D;53638;51.062;5.804;2023-02-13T05:45:50;2.39;118.99
66726;HTU21D;53638;51.062;5.804;2023-02-13T05:48:16;2.35;118.99
66726;HTU21D;53638;51.062;5.804;2023-02-13T05:50:45;2.22;118.99
66726;HTU21D;53638;51.062;5.804;2023-02-13T05:53:11;2.11;118.99
66726;HTU21D;53638;51.062;5.804;2023-02-13T05:55:38;1.99;118.99
66726;HTU21D;53638;51.062;5.804;2023-02-13T05:58:04;1.91;118.99
66726;HTU21D;53638;51.062;5.804;2023-02-13T06:00:30;1.97;118.99
66726;HTU21D;53638;51.062;5.804;2023-02-13T06:02:55;2.07;118.99
66726;HTU21D;53638;51.062;5.804;2023-02-13T06:05:21;2.12;118.99
66726;HTU21D;53638;51.062;5.804;2023-02-13T06:07:47;2.17;118.99
66726;HTU21D;53638;51.062;5.804;2023-02-13T06:10:13;2.20;118.99
66726;HTU21D;53638;51.062;5.804;2023-02-13T06:12:39;2.21;118.99
66726;HTU21D;53638;51.062;5.804;2023-02-13T06:15:05;2.25;118.99
66726;HTU21D;53638;51.062;5.804;2023-02-13T06:17:31;2.28;118.99
66726;HTU21D;53638;51.062;5.804;2023-02-13T06:19:57;2.31;118.99
66726;HTU21D;53638;51.062;5.804;2023-02-13T06:22:23;2.37;118.99
66726;HTU21D;53638;51.062;5.804;2023-02-13T06:24:48;2.40;118.99
66726;HTU21D;53638;51.062;5.804;2023-02-13T06:27:14;2.40;118.99
66726;HTU21D;53638;51.062;5.804;2023-02-13T06:29:40;2.39;118.99
66726;HTU21D;53638;51.062;5.804;2023-02-13T06:32:06;2.39;118.99
66726;HTU21D;53638;51.062;5.804;2023-02-13T06:34:32;2.41;118.99
66726;HTU21D;53638;51.062;5.804;2023-02-13T06:36:57;2.40;118.99
66726;HTU21D;53638;51.062;5.804;2023-02-13T06:39:23;2.43;118.99
66726;HTU21D;53638;51.062;5.804;2023-02-13T06:41:49;2.39;118.99
66726;HTU21D;53638;51.062;5.804;2023-02-13T06:44:15;2.38;118.99
66726;HTU21D;53638;51.062;5.804;2023-02-13T06:46:41;2.26;118.99
66726;HTU21D;53638;51.062;5.804;2023-02-13T06:49:08;2.19;118.99
66726;HTU21D;53638;51.062;5.804;2023-02-13T06:51:34;2.06;118.99
66726;HTU21D;53638;51.062;5.804;2023-02-13T06:54:00;2.02;118.99
66726;HTU21D;53638;51.062;5.804;2023-02-13T06:56:27;2.08;118.99
66726;HTU21D;53638;51.062;5.804;2023-02-13T06:58:53;2.09;118.99
66726;HTU21D;53638;51.062;5.804;2023-02-13T07:01:18;2.07;118.99
66726;HTU21D;53638;51.062;5.804;2023-02-13T07:03:44;2.09;118.99
66726;HTU21D;53638;51.062;5.804;2023-02-13T07:06:17;2.06;118.99
66726;HTU21D;53638;51.062;5.804;2023-02-13T07:08:43;2.03;118.99
66726;HTU21D;53638;51.062;5.804;2023-02-13T07:11:17;2.02;118.99
66726;HTU21D;53638;51.062;5.804;2023-02-13T07:13:43;2.03;118.99
66726;HTU21D;53638;51.062;5.804;2023-02-13T07:16:09;2.01;118.99
66726;HTU21D;53638;51.062;5.804;2023-02-13T07:18:35;2.01;118.99
66726;HTU21D;53638;51.062;5.804;2023-02-13T07:21:00;2.00;118.99
66726;HTU21D;53638;51.062;5.804;2023-02-13T07:23:26;1.99;118.99
66726;HTU21D;53638;51.062;5.804;2023-02-13T07:25:52;2.02;118.99
66726;HTU21D;53638;51.062;5.804;2023-02-13T07:28:18;2.07;118.99
66726;HTU21D;53638;51.062;5.804;2023-02-13T07:30:44;2.06;118.99
66726;HTU21D;53638;51.062;5.804;2023-02-13T07:33:10;2.11;118.99
66726;HTU21D;53638;51.062;5.804;2023-02-13T07:35:36;2.20;118.99
66726;HTU21D;53638;51.062;5.804;2023-02-13T07:38:03;2.24;118.99
66726;HTU21D;53638;51.062;5.804;2023-02-13T07:40:29;2.28;118.99
66726;HTU21D;53638;51.062;5.804;2023-02-13T07:42:58;2.32;118.99
66726;HTU21D;53638;51.062;5.804;2023-02-13T07:45:24;2.28;118.99
66726;HTU21D;53638;51.062;5.804;2023-02-13T07:47:50;2.31;118.99
66726;HTU21D;53638;51.062;5.804;2023-02-13T07:50:19;2.34;118.99
66726;HTU21D;53638;51.062;5.804;2023-02-13T07:52:52;2.27;118.99
66726;HTU21D;53638;51.062;5.804;2023-02-13T07:55:18;2.30;118.99
66726;HTU21D;53638;51.062;5.804;2023-02-13T07:57:44;2.35;118.99
66726;HTU21D;53638;51.062;5.804;2023-02-13T08:00:10;2.37;118.99
66726;HTU21D;53638;51.062;5.804;2023-02-13T08:02:37;2.44;118.99
66726;HTU21D;53638;51.062;5.804;2023-02-13T08:05:03;2.51;118.99
66726;HTU21D;53638;51.062;5.804;2023-02-13T08:07:29;2.56;118.99
66726;HTU21D;53638;51.062;5.804;2023-02-13T08:09:56;2.64;118.99
66726;HTU21D;53638;51.062;5.804;2023-02-13T08:12:41;2.71;118.99
66726;HTU21D;53638;51.062;5.804;2023-02-13T08:15:10;2.76;118.99
66726;HTU21D;53638;51.062;5.804;2023-02-13T08:17:36;2.72;118.99
66726;HTU21D;53638;51.062;5.804;2023-02-13T08:20:03;2.72;118.99
66726;HTU21D;53638;51.062;5.804;2023-02-13T08:22:29;2.71;118.99
66726;HTU21D;53638;51.062;5.804;2023-02-13T08:24:55;2.69;118.99
66726;HTU21D;53638;51.062;5.804;2023-02-13T08:27:21;2.74;118.99
66726;HTU21D;53638;51.062;5.804;2023-02-13T08:29:48;2.72;118.99
66726;HTU21D;53638;51.062;5.804;2023-02-13T08:32:15;2.72;118.99
66726;HTU21D;53638;51.062;5.804;2023-02-13T08:34:40;2.78;118.99
66726;HTU21D;53638;51.062;5.804;2023-02-13T08:37:06;2.87;118.99
66726;HTU21D;53638;51.062;5.804;2023-02-13T08:39:32;2.96;118.99
66726;HTU21D;53638;51.062;5.804;2023-02-13T08:41:58;3.03;118.99
66726;HTU21D;53638;51.062;5.804;2023-02-13T08:44:24;3.09;118.99
66726;HTU21D;53638;51.062;5.804;2023-02-13T08:46:50;3.17;118.99
66726;HTU21D;53638;51.062;5.804;2023-02-13T08:49:16;3.24;118.99
66726;HTU21D;53638;51.062;5.804;2023-02-13T08:51:41;3.33;118.99
66726;HTU21D;53638;51.062;5.804;2023-02-13T08:54:07;3.42;118.99
66726;HTU21D;53638;51.062;5.804;2023-02-13T08:56:33;3.50;118.99
66726;HTU21D;53638;51.062;5.804;2023-02-13T08:58:59;3.58;118.99
66726;HTU21D;53638;51.062;5.804;2023-02-13T09:01:25;3.63;118.99
66726;HTU21D;53638;51.062;5.804;2023-02-13T09:03:51;3.70;118.99
66726;HTU21D;53638;51.062;5.804;2023-02-13T09:06:18;3.76;118.99
66726;HTU21D;53638;51.062;5.804;2023-02-13T09:08:43;3.84;118.99
66726;HTU21D;53638;51.062;5.804;2023-02-13T09:11:09;3.89;118.99
66726;HTU21D;53638;51.062;5.804;2023-02-13T09:13:35;3.94;118.99
66726;HTU21D;53638;51.062;5.804;2023-02-13T09:16:04;4.02;118.99
66726;HTU21D;53638;51.062;5.804;2023-02-13T09:18:31;4.10;118.99
66726;HTU21D;53638;51.062;5.804;2023-02-13T09:21:05;4.19;118.99
66726;HTU21D;53638;51.062;5.804;2023-02-13T09:23:33;4.27;118.99
66726;HTU21D;53638;51.062;5.804;2023-02-13T09:26:00;4.36;118.99
66726;HTU21D;53638;51.062;5.804;2023-02-13T09:28:29;4.43;118.99
66726;HTU21D;53638;51.062;5.804;2023-02-13T09:30:55;4.52;118.99
66726;HTU21D;53638;51.062;5.804;2023-02-13T09:33:22;4.62;118.99
66726;HTU21D;53638;51.062;5.804;2023-02-13T09:35:48;4.72;118.99
66726;HTU21D;53638;51.062;5.804;2023-02-13T09:38:14;4.80;118.99
66726;HTU21D;53638;51.062;5.804;2023-02-13T09:40:48;4.88;118.99
66726;HTU21D;53638;51.062;5.804;2023-02-13T09:43:30;4.95;118.99
66726;HTU21D;53638;51.062;5.804;2023-02-13T09:46:01;5.03;118.99
66726;HTU21D;53638;51.062;5.804;2023-02-13T09:48:33;5.11;118.99
66726;HTU21D;53638;51.062;5.804;2023-02-13T09:51:00;5.21;118.99
66726;HTU21D;53638;51.062;5.804;2023-02-13T09:53:28;5.30;118.99
66726;HTU21D;53638;51.062;5.804;2023-02-13T09:58:36;5.51;118.99
66726;HTU21D;53638;51.062;5.804;2023-02-13T10:01:13;5.60;118.99
66726;HTU21D;53638;51.062;5.804;2023-02-13T10:03:49;5.67;118.99
66726;HTU21D;53638;51.062;5.804;2023-02-13T10:06:25;5.79;118.99
66726;HTU21D;53638;51.062;5.804;2023-02-13T10:09:21;5.91;118.99
66726;HTU21D;53638;51.062;5.804;2023-02-13T10:12:05;6.02;118.99
66726;HTU21D;53638;51.062;5.804;2023-02-13T10:14:59;6.09;118.99
66726;HTU21D;53638;51.062;5.804;2023-02-13T10:17:37;6.16;118.99
66726;HTU21D;53638;51.062;5.804;2023-02-13T10:20:21;6.26;118.99
66726;HTU21D;53638;51.062;5.804;2023-02-13T10:22:58;6.38;118.99
66726;HTU21D;53638;51.062;5.804;2023-02-13T10:25:29;6.50;118.99
66726;HTU21D;53638;51.062;5.804;2023-02-13T10:28:05;6.64;118.99
66726;HTU21D;53638;51.062;5.804;2023-02-13T10:30:45;6.75;118.99
66726;HTU21D;53638;51.062;5.804;2023-02-13T10:33:18;6.91;118.99
66726;HTU21D;53638;51.062;5.804;2023-02-13T10:35:58;7.14;118.99
66726;HTU21D;53638;51.062;5.804;2023-02-13T10:38:29;7.38;118.99
66726;HTU21D;53638;51.062;5.804;2023-02-13T10:44:01;7.75;118.99
66726;HTU21D;53638;51.062;5.804;2023-02-13T10:46:54;8.44;118.99
66726;HTU21D;53638;51.062;5.804;2023-02-13T10:52:16;13.00;118.99
66726;HTU21D;53638;51.062;5.804;2023-02-13T10:57:35;15.96;118.99
66726;HTU21D;53638;51.062;5.804;2023-02-13T11:00:24;17.10;118.99
66726;HTU21D;53638;51.062;5.804;2023-02-13T11:02:51;18.02;118.99
66726;HTU21D;53638;51.062;5.804;2023-02-13T11:05:24;18.57;118.99
66726;HTU21D;53638;51.062;5.804;2023-02-13T11:07:50;19.07;116.02
66726;HTU21D;53638;51.062;5.804;2023-02-13T11:10:21;19.37;108.17
66726;HTU21D;53638;51.062;5.804;2023-02-13T11:12:48;19.56;107.63
66726;HTU21D;53638;51.062;5.804;2023-02-13T11:15:24;20.15;105.66
66726;HTU21D;53638;51.062;5.804;2023-02-13T11:17:54;20.46;101.85
66726;HTU21D;53638;51.062;5.804;2023-02-13T11:20:29;20.72;99.96
66726;HTU21D;53638;51.062;5.804;2023-02-13T11:25:38;21.25;96.07
66726;HTU21D;53638;51.062;5.804;2023-02-13T11:28:14;21.54;94.27
66726;HTU21D;53638;51.062;5.804;2023-02-13T11:30:42;21.95;92.91
66726;HTU21D;53638;51.062;5.804;2023-02-13T11:35:42;22.52;90.34
66726;HTU21D;53638;51.062;5.804;2023-02-13T11:40:36;23.15;87.83
66726;HTU21D;53638;51.062;5.804;2023-02-13T11:43:07;23.17;87.95
66726;HTU21D;53638;51.062;5.804;2023-02-13T11:45:33;23.59;87.41
66726;HTU21D;53638;51.062;5.804;2023-02-13T11:48:00;23.92;84.21
66726;HTU21D;53638;51.062;5.804;2023-02-13T11:50:34;24.21;85.39
66726;HTU21D;53638;51.062;5.804;2023-02-13T11:53:05;24.57;82.45
66726;HTU21D;53638;51.062;5.804;2023-02-13T11:55:35;24.73;82.62
66726;HTU21D;53638;51.062;5.804;2023-02-13T11:58:23;24.97;82.83
66726;HTU21D;53638;51.062;5.804;2023-02-13T12:00:49;25.05;82.71
66726;HTU21D;53638;51.062;5.804;2023-02-13T12:03:31;25.40;80.14
66726;HTU21D;53638;51.062;5.804;2023-02-13T12:08:27;25.80;80.06
66726;HTU21D;53638;51.062;5.804;2023-02-13T12:10:55;25.88;76.47
66726;HTU21D;53638;51.062;5.804;2023-02-13T12:13:31;25.95;75.65
66726;HTU21D;53638;51.062;5.804;2023-02-13T12:16:02;25.63;74.89
66726;HTU21D;53638;51.062;5.804;2023-02-13T12:18:37;24.87;75.35
66726;HTU21D;53638;51.062;5.804;2023-02-13T12:26:31;24.43;76.94
66726;HTU21D;53638;51.062;5.804;2023-02-13T12:31:58;25.05;75.47
66726;HTU21D;53638;51.062;5.804;2023-02-13T12:46:17;24.95;77.21
66726;HTU21D;53638;51.062;5.804;2023-02-13T12:49:25;25.17;76.05
66726;HTU21D;53638;51.062;5.804;2023-02-13T12:52:26;25.28;77.69
66726;HTU21D;53638;51.062;5.804;2023-02-13T12:55:17;25.54;75.56
66726;HTU21D;53638;51.062;5.804;2023-02-13T13:00:37;25.72;76.09
66726;HTU21D;53638;51.062;5.804;2023-02-13T13:03:24;25.77;74.09
66726;HTU21D;53638;51.062;5.804;2023-02-13T13:08:35;26.07;74.78
66726;HTU21D;53638;51.062;5.804;2023-02-13T13:13:48;26.06;74.72
66726;HTU21D;53638;51.062;5.804;2023-02-13T13:19:27;26.37;73.14
66726;HTU21D;53638;51.062;5.804;2023-02-13T13:24:31;26.20;74.91
66726;HTU21D;53638;51.062;5.804;2023-02-13T13:27:01;26.26;72.47
66726;HTU21D;53638;51.062;5.804;2023-02-13T13:32:06;25.01;74.83
66726;HTU21D;53638;51.062;5.804;2023-02-13T13:34:35;24.75;74.51
66726;HTU21D;53638;51.062;5.804;2023-02-13T13:37:05;24.57;74.26
66726;HTU21D;53638;51.062;5.804;2023-02-13T13:39:51;24.15;75.17
66726;HTU21D;53638;51.062;5.804;2023-02-13T13:42:39;23.91;75.73
66726;HTU21D;53638;51.062;5.804;2023-02-13T13:45:34;23.44;74.96
66726;HTU21D;53638;51.062;5.804;2023-02-13T13:50:54;22.42;77.50
66726;HTU21D;53638;51.062;5.804;2023-02-13T13:53:21;21.94;78.67
66726;HTU21D;53638;51.062;5.804;2023-02-13T14:01:17;21.27;79.30
66726;HTU21D;53638;51.062;5.804;2023-02-13T14:03:45;20.92;80.08
66726;HTU21D;53638;51.062;5.804;2023-02-13T14:06:16;20.64;79.63
66726;HTU21D;53638;51.062;5.804;2023-02-13T14:13:53;19.83;83.29
66726;HTU21D;53638;51.062;5.804;2023-02-13T14:16:43;19.95;82.26
66726;HTU21D;53638;51.062;5.804;2023-02-13T14:19:34;20.13;81.60
66726;HTU21D;53638;51.062;5.804;2023-02-13T14:24:53;19.95;81.79
66726;HTU21D;53638;51.062;5.804;2023-02-13T14:27:32;19.69;83.20
66726;HTU21D;53638;51.062;5.804;2023-02-13T14:30:00;19.37;83.23
66726;HTU21D;53638;51.062;5.804;2023-02-13T14:32:38;19.13;84.29
66726;HTU21D;53638;51.062;5.804;2023-02-13T14:35:25;19.14;85.05
66726;HTU21D;53638;51.062;5.804;2023-02-13T14:37:57;18.95;85.35
66726;HTU21D;53638;51.062;5.804;2023-02-13T14:40:32;18.73;85.88
66726;HTU21D;53638;51.062;5.804;2023-02-13T14:45:45;18.33;88.07
66726;HTU21D;53638;51.062;5.804;2023-02-13T14:48:13;18.17;87.62
66726;HTU21D;53638;51.062;5.804;2023-02-13T14:50:48;18.02;87.79
66726;HTU21D;53638;51.062;5.804;2023-02-13T14:53:27;17.94;89.69
66726;HTU21D;53638;51.062;5.804;2023-02-13T14:56:01;17.91;89.43
66726;HTU21D;53638;51.062;5.804;2023-02-13T14:58:34;17.83;89.18
66726;HTU21D;53638;51.062;5.804;2023-02-13T15:01:27;17.68;89.99
66726;HTU21D;53638;51.062;5.804;2023-02-13T15:04:04;17.52;89.68
66726;HTU21D;53638;51.062;5.804;2023-02-13T15:06:40;17.55;89.70
66726;HTU21D;53638;51.062;5.804;2023-02-13T15:09:25;17.78;89.52
66726;HTU21D;53638;51.062;5.804;2023-02-13T15:11:51;18.02;89.67
66726;HTU21D;53638;51.062;5.804;2023-02-13T15:16:53;17.84;91.11
66726;HTU21D;53638;51.062;5.804;2023-02-13T15:19:21;17.83;91.05
66726;HTU21D;53638;51.062;5.804;2023-02-13T15:21:52;17.81;90.60
66726;HTU21D;53638;51.062;5.804;2023-02-13T15:24:20;17.79;91.05
66726;HTU21D;53638;51.062;5.804;2023-02-13T15:26:59;17.84;91.41
66726;HTU21D;53638;51.062;5.804;2023-02-13T15:29:26;17.95;90.66
66726;HTU21D;53638;51.062;5.804;2023-02-13T15:31:52;17.94;90.15
66726;HTU21D;53638;51.062;5.804;2023-02-13T15:36:50;17.87;91.00
66726;HTU21D;53638;51.062;5.804;2023-02-13T15:39:20;17.81;91.12
66726;HTU21D;53638;51.062;5.804;2023-02-13T15:41:51;17.72;91.30
66726;HTU21D;53638;51.062;5.804;2023-02-13T15:44:23;17.63;91.66
66726;HTU21D;53638;51.062;5.804;2023-02-13T15:47:05;17.47;91.35
66726;HTU21D;53638;51.062;5.804;2023-02-13T15:49:38;17.38;91.82
66726;HTU21D;53638;51.062;5.804;2023-02-13T15:52:17;17.40;92.40
66726;HTU21D;53638;51.062;5.804;2023-02-13T15:54:49;17.48;92.62
66726;HTU21D;53638;51.062;5.804;2023-02-13T15:57:16;17.55;92.99
66726;HTU21D;53638;51.062;5.804;2023-02-13T15:59:44;17.56;92.97
66726;HTU21D;53638;51.062;5.804;2023-02-13T16:02:18;17.40;93.28
66726;HTU21D;53638;51.062;5.804;2023-02-13T16:04:49;17.21;93.40
66726;HTU21D;53638;51.062;5.804;2023-02-13T16:07:16;17.07;93.67
66726;HTU21D;53638;51.062;5.804;2023-02-13T16:09:42;16.99;93.73
66726;HTU21D;53638;51.062;5.804;2023-02-13T16:12:24;16.88;92.99
66726;HTU21D;53638;51.062;5.804;2023-02-13T16:14:55;16.82;93.70
66726;HTU21D;53638;51.062;5.804;2023-02-13T16:17:28;16.73;94.44
66726;HTU21D;53638;51.062;5.804;2023-02-13T16:19:59;16.63;95.41
66726;HTU21D;53638;51.062;5.804;2023-02-13T16:22:33;16.58;95.15
66726;HTU21D;53638;51.062;5.804;2023-02-13T16:27:35;16.51;94.29
66726;HTU21D;53638;51.062;5.804;2023-02-13T16:30:05;16.39;94.27
66726;HTU21D;53638;51.062;5.804;2023-02-13T16:32:34;16.18;94.65
66726;HTU21D;53638;51.062;5.804;2023-02-13T16:37:56;15.89;94.85
66726;HTU21D;53638;51.062;5.804;2023-02-13T16:40:37;15.76;95.36
66726;HTU21D;53638;51.062;5.804;2023-02-13T16:43:37;15.52;96.14
66726;HTU21D;53638;51.062;5.804;2023-02-13T16:48:38;14.92;98.58
66726;HTU21D;53638;51.062;5.804;2023-02-13T16:51:04;14.80;99.00
66726;HTU21D;53638;51.062;5.804;2023-02-13T16:53:30;14.69;99.38
66726;HTU21D;53638;51.062;5.804;2023-02-13T16:56:14;14.55;99.89
66726;HTU21D;53638;51.062;5.804;2023-02-13T16:58:41;14.42;100.57
66726;HTU21D;53638;51.062;5.804;2023-02-13T17:01:15;14.29;101.12
66726;HTU21D;53638;51.062;5.804;2023-02-13T17:03:42;14.13;101.59
66726;HTU21D;53638;51.062;5.804;2023-02-13T17:06:09;13.99;102.07
66726;HTU21D;53638;51.062;5.804;2023-02-13T17:08:35;13.91;102.67
66726;HTU21D;53638;51.062;5.804;2023-02-13T17:11:04;13.83;102.83
66726;HTU21D;53638;51.062;5.804;2023-02-13T17:13:31;13.69;103.54
66726;HTU21D;53638;51.062;5.804;2023-02-13T17:15:57;13.58;103.73
66726;HTU21D;53638;51.062;5.804;2023-02-13T17:18:25;13.49;103.83
66726;HTU21D;53638;51.062;5.804;2023-02-13T17:20:52;13.41;103.88
66726;HTU21D;53638;51.062;5.804;2023-02-13T17:23:22;13.34;104.63
66726;HTU21D;53638;51.062;5.804;2023-02-13T17:25:50;13.31;105.54
66726;HTU21D;53638;51.062;5.804;2023-02-13T17:28:22;13.27;106.28
66726;HTU21D;53638;51.062;5.804;2023-02-13T17:30:52;13.18;106.89